Time;durP1;ratioP1;P1;durP2;ratioP2;P2;SDS_P1;SDS_P2;PMS_P1;PMS_P2;Temp;Humidity;BMP_temperature;BMP_pressure;BME280_temperature;BME280_humidity;BME280_pressure;Samples;Min_cycle;Max_cycle;Signal;HPM_P1;HPM_P2
2021/06/06 00:02:24;;;;;;;6.10;5.60;;;19.90;78.10;;;19.84;61.67;95149.97;5150578;27;20634;-85
2021/06/06 00:04:51;;;;;;;6.82;5.50;;;19.90;78.00;;;19.88;61.50;95154.84;5119831;28;20229;-85
2021/06/06 00:07:18;;;;;;;6.25;5.10;;;19.90;78.00;;;19.90;61.76;95164.19;5041819;28;20224;-85
2021/06/06 00:09:45;;;;;;;5.70;5.20;;;19.90;78.00;;;19.90;61.80;95161.53;5099753;28;20613;-85
2021/06/06 00:12:12;;;;;;;5.00;4.57;;;19.90;78.10;;;19.90;62.00;95156.19;5070979;28;20202;-85
2021/06/06 00:14:39;;;;;;;6.75;5.20;;;19.90;78.10;;;19.96;61.79;95165.06;5003021;28;20237;-85
2021/06/06 00:17:10;;;;;;;5.07;4.65;;;19.90;78.00;;;19.92;61.54;95159.44;4969204;28;20206;-84
2021/06/06 00:22:10;;;;;;;5.45;4.93;;;19.90;78.10;;;19.99;61.46;95168.06;5150911;27;20390;-85
2021/06/06 00:24:38;;;;;;;5.47;4.43;;;19.90;78.10;;;20.03;61.66;95179.03;5106061;28;20213;-85
2021/06/06 00:27:06;;;;;;;5.57;4.88;;;20.00;78.20;;;20.00;61.48;95169.63;5067771;28;20293;-85
2021/06/06 00:29:34;;;;;;;5.18;4.68;;;19.90;78.30;;;19.99;61.64;95176.03;5042056;28;20231;-84
2021/06/06 00:32:01;;;;;;;5.95;5.35;;;20.00;78.10;;;20.06;61.75;95180.38;5029759;28;20269;-85
2021/06/06 00:34:28;;;;;;;5.47;4.97;;;20.00;78.10;;;20.03;61.51;95179.03;5038819;28;20239;-84
2021/06/06 00:36:57;;;;;;;5.75;5.05;;;20.00;78.10;;;20.08;61.67;95188.91;4933719;28;20609;-85
2021/06/06 00:42:07;;;;;;;5.70;5.10;;;20.00;78.10;;;20.07;61.71;95187.31;5150798;27;20649;-85
2021/06/06 00:44:35;;;;;;;4.97;4.57;;;19.90;78.00;;;20.05;61.73;95182.22;5097978;28;20217;-84
2021/06/06 00:47:06;;;;;;;5.65;5.05;;;20.00;78.10;;;20.09;61.50;95191.34;5055525;27;20244;-84
2021/06/06 00:49:33;;;;;;;4.78;4.30;;;20.10;78.10;;;20.04;61.55;95177.16;5090948;28;20237;-85
2021/06/06 00:52:01;;;;;;;4.88;4.47;;;20.10;78.10;;;20.09;61.29;95179.88;4994964;28;21436;-85
2021/06/06 00:54:45;;;;;;;5.65;5.15;;;20.00;78.00;;;20.08;61.17;95175.59;4936366;28;20755;-85
2021/06/06 00:57:22;;;;;;;5.25;4.85;;;20.00;78.00;;;20.03;61.24;95176.34;4924666;28;20297;-84
2021/06/06 01:02:07;;;;;;;4.50;4.10;;;20.10;77.90;;;19.97;61.54;95166.69;5150931;27;20635;-84
2021/06/06 01:04:36;;;;;;;5.50;5.00;;;20.10;77.60;;;19.96;61.55;95173.06;5092889;27;20596;-83
2021/06/06 01:07:03;;;;;;;4.80;4.40;;;20.00;77.60;;;19.92;61.06;95170.06;5078119;28;20209;-84
2021/06/06 01:09:30;;;;;;;5.90;4.70;;;20.00;77.50;;;19.93;61.32;95174.34;5063468;28;20234;-85
2021/06/06 01:12:12;;;;;;;4.68;4.28;;;20.00;77.50;;;19.90;61.52;95172.16;5045877;28;20226;-85
2021/06/06 01:15:24;;;;;;;4.70;4.30;;;20.00;77.60;;;19.79;61.79;95165.84;5020850;28;20275;-84
2021/06/06 01:18:07;;;;;;;4.70;4.30;;;20.00;77.60;;;19.78;61.69;95169.56;4781024;29;20247;-84
2021/06/06 01:21:13;;;;;;;4.63;4.22;;;19.90;77.50;;;19.77;61.18;95165.28;5150473;27;20380;-84
2021/06/06 01:23:58;;;;;;;4.85;4.45;;;19.90;77.60;;;19.74;61.48;95165.78;5059672;28;20229;-84
2021/06/06 01:26:42;;;;;;;4.93;4.43;;;19.90;77.50;;;19.75;61.28;95161.25;5055844;28;20626;-85
2021/06/06 01:29:33;;;;;;;4.68;4.28;;;19.90;77.60;;;19.72;61.72;95162.56;5028550;28;20258;-83
2021/06/06 01:32:19;;;;;;;4.80;4.30;;;19.80;77.60;;;19.72;61.98;95165.22;4948259;28;20207;-87
2021/06/06 01:35:00;;;;;;;4.75;4.35;;;19.80;77.70;;;19.72;61.24;95169.75;4886173;29;20474;-85
2021/06/06 01:40:14;;;;;;;4.18;3.83;;;19.80;77.60;;;19.75;61.57;95150.63;5148546;27;20639;-84
2021/06/06 01:42:48;;;;;;;4.22;3.75;;;19.80;77.60;;;19.80;61.64;95156.81;5102311;28;20286;-84
2021/06/06 01:45:23;;;;;;;3.90;3.60;;;19.90;77.90;;;19.80;61.65;95158.69;5036843;28;20247;-84
2021/06/06 01:47:51;;;;;;;4.00;3.70;;;19.80;77.70;;;19.80;61.18;95151.50;5041304;28;20215;-84
2021/06/06 01:50:21;;;;;;;3.50;3.20;;;19.80;77.70;;;19.83;61.14;95152.88;5056248;28;20195;-85
2021/06/06 01:52:52;;;;;;;5.50;3.80;;;19.80;77.60;;;19.81;61.32;95152.28;4949018;28;20670;-84
2021/06/06 01:55:25;;;;;;;4.38;3.83;;;19.80;77.70;;;19.80;61.07;95146.19;4823699;29;20249;-85
2021/06/06 01:59:54;;;;;;;4.05;3.67;;;19.80;77.70;;;19.78;61.16;95155.47;5131407;27;20652;-84
2021/06/06 02:02:23;;;;;;;4.55;4.15;;;19.90;77.70;;;19.76;61.97;95153.06;5100761;28;20654;-85
2021/06/06 02:04:50;;;;;;;5.05;4.43;;;19.90;77.70;;;19.75;61.54;95154.09;5053677;28;20741;-83
2021/06/06 02:07:28;;;;;;;4.57;4.18;;;19.90;77.70;;;19.70;61.35;95150.53;5023710;28;20238;-85
2021/06/06 02:10:27;;;;;;;4.60;4.20;;;19.80;77.80;;;19.70;61.42;95148.72;4976743;28;20396;-84
2021/06/06 02:13:13;;;;;;;4.90;4.20;;;19.80;77.70;;;19.68;61.29;95153.47;4920755;28;20235;-84
2021/06/06 02:15:52;;;;;;;4.53;4.13;;;19.80;77.70;;;19.64;61.52;95155.78;4784581;29;20220;-84
2021/06/06 02:20:07;;;;;;;4.32;3.92;;;19.70;77.70;;;19.60;61.77;95157.31;5130268;27;20629;-84
2021/06/06 02:22:37;;;;;;;4.20;3.80;;;19.70;77.60;;;19.58;61.59;95145.31;5063230;28;20217;-83
2021/06/06 02:25:07;;;;;;;3.65;3.35;;;19.70;77.60;;;19.55;61.62;95151.91;5075041;28;20706;-84
2021/06/06 02:27:46;;;;;;;4.05;3.65;;;19.70;77.70;;;19.52;61.61;95149.75;5048926;28;20219;-86
2021/06/06 02:30:23;;;;;;;3.70;3.40;;;19.60;77.70;;;19.51;61.69;95156.91;5003968;28;20211;-84
2021/06/06 02:33:27;;;;;;;3.60;3.30;;;19.60;77.70;;;19.47;61.70;95149.66;4970967;28;20668;-85
2021/06/06 02:36:06;;;;;;;3.53;3.17;;;19.60;77.70;;;19.47;62.00;95155.78;4845697;29;20215;-84
2021/06/06 02:40:29;;;;;;;3.00;2.80;;;19.60;77.70;;;19.43;61.86;95160.00;5134226;27;20653;-84
2021/06/06 02:43:06;;;;;;;3.33;3.03;;;19.60;77.70;;;19.42;61.88;95157.56;5091215;28;20213;-85
2021/06/06 02:45:33;;;;;;;3.30;3.00;;;19.60;77.70;;;19.40;61.50;95160.47;5051609;28;20218;-84
2021/06/06 02:48:13;;;;;;;2.85;2.65;;;19.50;77.60;;;19.38;62.08;95157.22;5045524;28;20702;-85
2021/06/06 02:50:42;;;;;;;2.75;2.55;;;19.50;77.70;;;19.33;61.91;95150.00;5029895;28;20209;-84
2021/06/06 02:53:21;;;;;;;2.80;2.60;;;19.50;77.80;;;19.35;62.12;95158.53;4998248;28;20224;-84
2021/06/06 02:55:59;;;;;;;2.60;2.40;;;19.40;77.90;;;19.31;61.97;95153.91;4907258;28;20293;-83
2021/06/06 03:00:46;;;;;;;2.22;2.03;;;19.50;77.90;;;19.28;61.96;95160.53;5148279;27;20612;-83
2021/06/06 03:03:29;;;;;;;2.40;2.03;;;19.40;77.90;;;19.29;61.94;95161.34;5052271;28;20226;-85
2021/06/06 03:06:13;;;;;;;2.78;2.58;;;19.40;77.90;;;19.26;61.72;95152.00;5054277;28;20229;-84
2021/06/06 03:08:43;;;;;;;2.40;2.20;;;19.40;78.00;;;19.25;62.01;95154.88;4986307;28;20248;-84
2021/06/06 03:11:15;;;;;;;5.50;2.53;;;19.40;78.00;;;19.19;62.40;95152.16;4929491;28;20215;-84
2021/06/06 03:13:49;;;;;;;2.20;2.10;;;19.30;78.00;;;19.18;62.28;95147.88;4834812;29;20231;-83
2021/06/06 03:16:19;;;;;;;2.38;2.10;;;19.30;78.20;;;19.17;62.30;95148.91;4744605;29;20697;-84
2021/06/06 03:20:31;;;;;;;2.35;2.15;;;19.30;78.10;;;19.13;62.49;95147.00;5133383;27;20561;-84
2021/06/06 03:23:02;;;;;;;2.08;1.90;;;19.30;78.20;;;19.12;62.69;95151.50;5069394;28;20330;-84
2021/06/06 03:25:50;;;;;;;2.40;2.20;;;19.30;78.30;;;19.12;62.69;95154.16;5073621;28;20236;-84
2021/06/06 03:28:29;;;;;;;2.10;2.00;;;19.30;78.40;;;19.08;62.60;95145.06;5026376;28;20223;-84
2021/06/06 03:31:05;;;;;;;2.08;1.98;;;19.30;78.40;;;19.14;62.53;95153.91;4879372;29;20210;-83
2021/06/06 03:33:53;;;;;;;2.38;1.80;;;19.30;78.50;;;19.15;62.34;95158.19;4773944;29;21370;-84
2021/06/06 03:36:40;;;;;;;2.00;1.80;;;19.20;78.50;;;19.13;62.68;95155.78;4684713;30;21324;-84
2021/06/06 03:39:26;;;;;;;2.33;2.13;;;19.30;78.60;;;19.21;62.78;95159.88;5135827;27;20753;-84
2021/06/06 03:41:57;;;;;;;2.20;2.00;;;19.30;78.60;;;19.22;62.86;95155.38;5065867;28;20289;-85
2021/06/06 03:44:25;;;;;;;1.80;1.70;;;19.30;78.60;;;19.20;62.48;95150.31;5052545;28;20287;-83
2021/06/06 03:46:53;;;;;;;2.20;2.00;;;19.20;78.50;;;19.22;62.50;95158.84;4995607;28;20740;-84
2021/06/06 03:49:21;;;;;;;2.20;2.00;;;19.30;78.50;;;19.22;62.71;95156.19;4944325;28;20560;-84
2021/06/06 03:51:48;;;;;;;2.00;1.90;;;19.30;78.70;;;19.16;62.39;95155.31;4836791;29;20214;-83
2021/06/06 03:54:18;;;;;;;2.20;2.00;;;19.30;78.60;;;19.18;62.50;95147.88;4785339;29;20683;-83
2021/06/06 03:59:17;;;;;;;2.15;1.95;;;19.30;78.70;;;19.18;62.54;95150.53;5134547;27;20574;-83
2021/06/06 04:01:45;;;;;;;2.40;2.20;;;19.30;78.70;;;19.15;62.84;95153.69;5098037;28;20206;-84
2021/06/06 04:04:12;;;;;;;3.10;2.20;;;19.20;78.80;;;19.09;63.51;95151.16;5098703;28;20233;-84
2021/06/06 04:06:39;;;;;;;2.85;1.92;;;19.20;78.90;;;19.09;63.04;95153.81;5076346;28;20202;-84
2021/06/06 04:09:08;;;;;;;2.40;2.00;;;19.20;78.90;;;19.11;62.99;95159.72;5054235;28;20223;-84
2021/06/06 04:11:37;;;;;;;2.20;1.88;;;19.30;79.00;;;19.12;62.85;95167.44;5002982;28;20285;-86
2021/06/06 04:14:10;;;;;;;1.98;1.88;;;19.30;79.00;;;19.13;63.56;95161.09;4913560;28;20250;-84
2021/06/06 04:16:47;;;;;;;2.38;2.20;;;19.30;79.10;;;19.15;63.07;95164.31;5136895;27;20559;-85
2021/06/06 04:19:15;;;;;;;2.13;1.92;;;19.20;79.10;;;19.13;63.58;95152.31;5092554;28;20302;-85
2021/06/06 04:21:42;;;;;;;2.03;1.92;;;19.20;79.20;;;19.19;63.80;95162.00;5041610;28;20241;-85
2021/06/06 04:24:10;;;;;;;2.53;2.33;;;19.20;79.20;;;19.18;63.49;95153.19;5075852;27;20294;-85
2021/06/06 04:26:38;;;;;;;2.33;2.10;;;19.20;79.20;;;19.25;63.01;95168.19;5093349;27;20296;-85
2021/06/06 04:29:06;;;;;;;2.25;2.05;;;19.30;79.30;;;19.26;63.50;95161.81;5045883;28;20696;-84
2021/06/06 04:31:34;;;;;;;2.30;2.10;;;19.30;79.20;;;19.23;63.17;95157.78;4941523;28;20278;-83
2021/06/06 04:36:47;;;;;;;2.42;2.22;;;19.30;79.30;;;19.23;63.31;95152.47;5149406;27;20403;-85
2021/06/06 04:39:17;;;;;;;2.47;2.15;;;19.30;79.30;;;19.29;63.33;95167.47;5086543;27;20696;-85
2021/06/06 04:41:45;;;;;;;2.55;2.35;;;19.30;79.30;;;19.33;63.33;95162.47;5072366;28;20749;-86
2021/06/06 04:44:13;;;;;;;2.83;2.55;;;19.40;79.40;;;19.34;63.62;95164.88;5024871;28;20222;-84
2021/06/06 04:46:44;;;;;;;2.28;2.08;;;19.40;79.40;;;19.36;63.31;95162.00;4985201;28;20358;-84
2021/06/06 04:49:12;;;;;;;2.25;1.90;;;19.40;79.40;;;19.43;63.07;95169.81;4955589;28;20230;-85
2021/06/06 04:51:39;;;;;;;2.40;2.20;;;19.40;79.50;;;19.42;63.13;95158.38;4884518;29;20218;-84
2021/06/06 04:54:27;;;;;;;1.90;1.80;;;19.40;79.50;;;19.49;63.22;95156.38;5134417;27;20672;-83
2021/06/06 04:56:54;;;;;;;2.45;2.20;;;19.50;79.70;;;19.55;62.77;95165.22;5088655;28;20213;-85
2021/06/06 04:59:27;;;;;;;2.03;1.92;;;19.50;79.70;;;19.62;63.06;95165.06;5063899;28;20230;-84
2021/06/06 05:01:54;;;;;;;2.50;2.20;;;19.50;79.70;;;19.69;62.66;95163.06;5029064;28;20573;-84
2021/06/06 05:04:21;;;;;;;2.67;2.40;;;19.60;79.60;;;19.66;63.31;95156.38;5006022;28;20227;-85
2021/06/06 05:06:49;;;;;;;2.40;2.20;;;19.60;79.60;;;19.73;63.25;95172.16;4980345;28;20198;-85
2021/06/06 05:09:19;;;;;;;2.58;2.13;;;19.70;79.50;;;19.68;63.32;95153.47;4896962;28;20285;-85
2021/06/06 05:14:30;;;;;;;2.25;2.05;;;19.70;79.50;;;19.80;62.84;95166.69;5130799;27;20649;-86
2021/06/06 05:16:59;;;;;;;2.65;2.45;;;19.70;79.50;;;19.83;62.82;95167.03;5069992;28;20208;-85
2021/06/06 05:19:32;;;;;;;2.90;2.30;;;19.80;79.50;;;19.82;63.07;95168.03;5075139;28;20225;-86
2021/06/06 05:21:59;;;;;;;2.65;2.45;;;19.80;79.50;;;19.84;62.74;95165.16;5030233;28;20194;-84
2021/06/06 05:24:26;;;;;;;2.80;2.60;;;19.90;79.50;;;19.84;63.19;95168.63;4972192;28;20232;-85
2021/06/06 05:26:54;;;;;;;2.55;2.35;;;19.80;79.50;;;19.85;63.09;95166.78;4922179;28;20669;-85
2021/06/06 05:29:22;;;;;;;2.28;2.17;;;19.90;79.50;;;19.92;63.12;95169.25;4846966;29;20423;-84
2021/06/06 05:32:13;;;;;;;2.85;2.60;;;19.90;79.50;;;19.94;62.93;95164.50;5151166;27;20629;-85
2021/06/06 05:34:42;;;;;;;3.13;2.60;;;19.90;79.50;;;19.97;63.04;95177.34;5100473;28;20309;-85
2021/06/06 05:37:13;;;;;;;2.92;2.72;;;19.90;79.50;;;19.97;63.20;95164.81;5084198;28;20212;-85
2021/06/06 05:39:44;;;;;;;3.10;2.80;;;19.90;79.50;;;20.03;62.61;95171.03;5105955;28;20263;-85
2021/06/06 05:42:12;;;;;;;3.13;2.88;;;20.00;79.60;;;19.99;63.12;95165.41;5042537;28;20200;-85
2021/06/06 05:44:39;;;;;;;3.10;2.90;;;20.00;79.30;;;20.01;63.04;95167.81;4981033;28;20227;-85
2021/06/06 05:47:06;;;;;;;3.67;3.33;;;20.00;79.40;;;20.04;63.14;95171.81;4939494;28;20221;-84
2021/06/06 05:49:55;;;;;;;3.00;2.80;;;20.00;79.40;;;20.00;62.53;95164.31;5120324;27;20645;-84
2021/06/06 05:52:32;;;;;;;3.03;2.72;;;20.00;79.40;;;20.06;63.13;95180.38;5069604;28;20289;-85
2021/06/06 05:55:00;;;;;;;3.00;2.80;;;20.00;79.40;;;20.06;63.11;95181.19;5044360;28;20231;-86
2021/06/06 05:57:27;;;;;;;2.97;2.72;;;20.00;79.30;;;20.03;62.62;95181.69;5051535;28;20199;-86
2021/06/06 05:59:54;;;;;;;3.85;3.55;;;20.10;79.30;;;20.00;62.94;95177.63;4930393;28;20309;-81
2021/06/06 06:02:21;;;;;;;3.40;3.10;;;20.00;79.30;;;20.05;62.57;95186.75;4863045;29;20791;-82
2021/06/06 06:04:48;;;;;;;3.30;3.00;;;20.10;79.30;;;20.03;62.93;95183.53;4764648;29;20230;-82
2021/06/06 06:07:36;;;;;;;3.20;2.90;;;20.10;79.20;;;20.00;62.92;95180.28;5143141;27;20602;-82
2021/06/06 06:10:11;;;;;;;3.50;3.17;;;20.10;79.20;;;19.97;62.76;95186.13;5079761;28;20204;-82
2021/06/06 06:12:40;;;;;;;5.07;3.58;;;20.10;79.30;;;19.97;63.27;95180.00;5045562;28;20199;-82
2021/06/06 06:15:09;;;;;;;3.33;3.03;;;20.00;79.40;;;19.94;63.27;95185.81;5001511;28;20694;-83
2021/06/06 06:17:37;;;;;;;3.25;3.05;;;20.00;79.30;;;19.93;62.99;95181.53;4902425;29;20217;-83
2021/06/06 06:20:11;;;;;;;3.90;3.55;;;20.00;79.30;;;19.93;62.87;95178.84;4877416;29;20232;-82
2021/06/06 06:22:39;;;;;;;3.78;3.47;;;20.00;79.40;;;19.93;63.01;95181.53;4766896;29;20219;-83
2021/06/06 06:25:08;;;;;;;2.83;2.63;;;20.00;79.40;;;19.94;63.43;95175.16;4454007;31;20697;-81
2021/06/06 06:28:33;;;;;;;2.90;2.70;;;20.00;79.50;;;20.00;63.05;95179.50;5120659;27;20579;-82
2021/06/06 06:31:09;;;;;;;3.50;3.20;;;20.00;79.50;;;20.05;63.58;95176.09;5070747;28;20209;-83
2021/06/06 06:33:49;;;;;;;3.42;3.13;;;20.00;79.70;;;20.08;63.27;95180.94;5067904;28;20291;-81
2021/06/06 06:36:18;;;;;;;3.72;3.42;;;20.10;79.70;;;20.10;63.28;95171.66;5046610;28;20204;-82
2021/06/06 06:38:50;;;;;;;3.70;3.40;;;20.10;79.80;;;20.20;63.04;95178.16;4991787;28;20232;-83
2021/06/06 06:41:22;;;;;;;3.58;3.28;;;20.10;79.80;;;20.22;62.74;95176.06;4839767;29;20233;-81
2021/06/06 06:43:50;;;;;;;3.95;3.10;;;20.20;79.90;;;20.31;63.23;95179.91;4687817;30;20332;-82
2021/06/06 06:46:28;;;;;;;3.63;3.33;;;20.20;79.90;;;20.39;62.89;95182.16;5147262;27;20635;-82
2021/06/06 06:48:56;;;;;;;3.63;3.33;;;20.30;79.90;;;20.48;62.70;95174.53;5111462;27;20227;-82
2021/06/06 06:51:26;;;;;;;3.15;2.88;;;20.30;79.80;;;20.55;62.78;95171.69;5106600;28;20201;-82
2021/06/06 06:53:56;;;;;;;4.43;3.72;;;20.40;79.90;;;20.60;62.83;95171.75;5077120;28;20226;-83
2021/06/06 06:56:26;;;;;;;3.72;3.42;;;20.40;79.70;;;20.64;62.62;95181.66;4969172;28;20680;-82
2021/06/06 06:58:55;;;;;;;3.95;3.65;;;20.50;79.60;;;20.70;62.43;95182.53;4977422;28;20240;-83
2021/06/06 07:01:23;;;;;;;4.47;3.70;;;20.60;79.50;;;20.71;62.56;95186.00;4879746;29;21839;-83
2021/06/06 07:06:27;;;;;;;5.03;3.80;;;20.60;79.40;;;20.72;62.17;95188.44;5150681;27;20965;-82
2021/06/06 07:08:54;;;;;;;4.30;3.92;;;20.60;79.30;;;20.70;62.35;95181.72;5111527;27;20220;-82
2021/06/06 07:11:22;;;;;;;4.95;4.45;;;20.70;79.10;;;20.68;62.15;95189.97;5107661;27;20206;-82
2021/06/06 07:13:50;;;;;;;5.15;4.70;;;20.60;78.80;;;20.64;61.84;95188.84;5098764;28;20224;-82
2021/06/06 07:16:19;;;;;;;5.10;4.70;;;20.60;78.60;;;20.57;62.37;95183.72;5038973;28;20207;-83
2021/06/06 07:18:47;;;;;;;4.47;4.07;;;20.70;78.70;;;20.52;62.00;95182.81;4954713;28;20223;-86
2021/06/06 07:21:21;;;;;;;5.50;5.00;;;20.60;78.60;;;20.44;62.50;95189.41;4945072;28;20557;-81
2021/06/06 07:23:49;;;;;;;6.18;5.57;;;20.60;78.60;;;20.38;62.43;95190.41;4733318;29;20736;-82
2021/06/06 07:26:33;;;;;;;5.30;4.78;;;20.50;79.20;;;20.29;62.34;95187.34;5149796;27;20387;-81
2021/06/06 07:29:04;;;;;;;5.55;4.80;;;20.50;78.40;;;20.24;62.32;95190.75;5099276;28;20226;-82
2021/06/06 07:31:31;;;;;;;5.20;4.70;;;20.50;78.50;;;20.20;62.16;95196.81;5081852;28;20207;-81
2021/06/06 07:34:16;;;;;;;5.50;5.00;;;20.40;78.50;;;20.11;62.50;95191.91;5070523;28;20692;-81
2021/06/06 07:36:45;;;;;;;5.90;5.38;;;20.40;78.50;;;20.08;62.54;95196.91;5059503;28;20213;-81
2021/06/06 07:39:13;;;;;;;6.18;5.07;;;20.40;78.50;;;20.05;62.83;95192.88;4969531;28;20232;-84
2021/06/06 07:41:40;;;;;;;6.47;5.88;;;20.30;78.70;;;20.00;62.43;95193.59;4880395;29;20216;-81
2021/06/06 07:46:46;;;;;;;4.90;4.47;;;20.10;78.60;;;19.97;62.83;95203.97;5137428;27;20571;-82
2021/06/06 07:49:14;;;;;;;6.25;4.60;;;20.10;78.80;;;20.00;62.70;95206.13;5088399;28;20222;-82
2021/06/06 07:51:41;;;;;;;4.85;4.35;;;20.10;78.90;;;20.02;62.51;95208.53;5074285;28;20206;-81
2021/06/06 07:54:08;;;;;;;5.97;5.38;;;20.10;79.10;;;20.02;62.64;95208.53;5061389;28;20643;-82
2021/06/06 07:56:36;;;;;;;6.80;6.10;;;20.10;79.10;;;19.98;62.72;95209.03;4971167;28;20204;-81
2021/06/06 07:59:04;;;;;;;6.05;5.55;;;20.10;79.00;;;19.89;62.68;95196.38;4931456;28;20239;-81
2021/06/06 08:01:32;;;;;;;5.40;4.93;;;20.10;79.10;;;19.89;62.54;95202.50;4774414;29;20288;-82
2021/06/06 08:04:11;;;;;;;6.28;5.53;;;20.00;79.10;;;19.85;63.13;95206.72;5136015;27;20567;-81
2021/06/06 08:06:38;;;;;;;6.40;5.30;;;20.00;79.10;;;19.81;63.22;95209.00;5102460;28;20606;-83
2021/06/06 08:09:06;;;;;;;5.93;5.43;;;20.00;79.20;;;19.78;63.28;95206.81;5064953;28;20244;-81
2021/06/06 08:11:34;;;;;;;6.90;4.60;;;19.90;79.30;;;19.78;63.00;95216.69;5096049;28;20200;-81
2021/06/06 08:14:00;;;;;;;5.13;4.72;;;19.90;79.40;;;19.80;63.28;95209.25;4988264;28;20227;-81
2021/06/06 08:16:28;;;;;;;5.95;5.35;;;19.90;79.60;;;19.80;63.23;95196.75;4959939;28;20228;-82
2021/06/06 08:18:54;;;;;;;7.22;6.50;;;19.90;80.00;;;19.89;63.87;95207.81;4966909;28;20265;-82
2021/06/06 08:21:32;;;;;;;8.15;7.35;;;19.90;80.20;;;19.97;63.46;95206.63;4928118;28;20222;-83
2021/06/06 08:25:55;;;;;;;7.05;6.20;;;19.90;80.60;;;20.17;63.56;95206.09;5131363;27;20652;-83
2021/06/06 08:28:24;;;;;;;6.60;5.95;;;20.00;80.70;;;20.31;64.01;95203.88;5066707;28;20695;-81
2021/06/06 08:31:01;;;;;;;7.28;6.63;;;20.10;81.20;;;20.46;63.65;95205.97;5074957;28;20240;-81
2021/06/06 08:33:31;;;;;;;6.40;5.80;;;20.20;81.20;;;20.59;63.85;95202.09;5046602;28;20230;-81
2021/06/06 08:36:05;;;;;;;8.73;6.82;;;20.30;81.20;;;20.66;63.49;95200.06;5062316;28;20210;-81
2021/06/06 08:38:33;;;;;;;7.57;6.88;;;20.40;81.00;;;20.76;63.32;95210.06;5049664;28;20226;-83
2021/06/06 08:41:24;;;;;;;8.68;7.80;;;20.50;81.00;;;20.86;63.07;95210.19;4969677;28;20257;-83
2021/06/06 08:46:05;;;;;;;8.40;7.35;;;20.50;80.80;;;20.99;63.05;95214.31;5150471;27;20654;-81
2021/06/06 08:48:32;;;;;;;8.32;7.53;;;20.70;80.50;;;21.04;63.07;95211.72;5099942;27;20228;-82
2021/06/06 08:51:41;;;;;;;9.68;8.73;;;20.80;80.50;;;21.10;62.71;95213.41;5112629;27;20657;-82
2021/06/06 08:54:08;;;;;;;8.98;8.18;;;20.90;80.30;;;21.19;63.09;95220.94;4986355;28;20235;-84
2021/06/06 08:56:38;;;;;;;9.40;8.50;;;20.90;80.20;;;21.26;63.17;95214.34;4949223;28;20216;-82
2021/06/06 08:59:34;;;;;;;9.43;8.52;;;21.00;80.20;;;21.30;62.78;95220.00;4840505;29;20234;-83
2021/06/06 09:02:32;;;;;;;11.65;10.55;;;21.10;80.00;;;21.36;62.49;95219.00;4766308;29;20212;-83
2021/06/06 09:07:10;;;;;;;11.60;10.50;;;21.10;79.70;;;21.42;62.64;95217.97;5141246;27;20570;-83
2021/06/06 09:09:46;;;;;;;11.02;9.93;;;21.20;79.60;;;21.51;62.36;95220.97;5067332;28;20231;-84
2021/06/06 09:12:22;;;;;;;11.13;9.95;;;21.30;79.90;;;21.58;61.83;95212.78;5059643;28;20204;-84
2021/06/06 09:14:53;;;;;;;10.88;9.88;;;21.40;79.90;;;21.72;62.50;95211.31;5009664;28;20225;-84
2021/06/06 09:17:53;;;;;;;10.88;9.88;;;21.40;79.80;;;21.94;62.40;95225.63;4951996;28;20554;-84
2021/06/06 09:20:33;;;;;;;10.43;9.52;;;21.50;80.00;;;22.18;62.43;95223.38;4894656;29;20227;-84
2021/06/06 09:23:15;;;;;;;12.93;11.60;;;21.70;80.30;;;22.43;62.31;95221.97;4753850;29;20242;-84
2021/06/06 09:28:24;;;;;;;11.40;10.30;;;21.80;80.10;;;22.88;61.31;95214.41;5145122;27;20676;-85
2021/06/06 09:31:03;;;;;;;10.68;9.57;;;22.20;79.40;;;23.07;60.85;95217.41;5088121;28;20205;-85
2021/06/06 09:33:48;;;;;;;11.00;9.90;;;22.40;79.10;;;23.25;61.00;95216.94;5087137;28;20694;-84
2021/06/06 09:36:29;;;;;;;10.32;9.40;;;22.60;79.20;;;23.44;60.64;95219.13;5004855;28;20215;-85
2021/06/06 09:39:21;;;;;;;14.75;9.65;;;22.80;78.70;;;23.65;59.81;95215.38;4957876;28;20258;-85
2021/06/06 09:41:55;;;;;;;10.38;9.48;;;23.00;78.20;;;23.82;59.63;95217.78;4817391;29;20303;-85
2021/06/06 09:44:29;;;;;;;9.55;8.60;;;23.10;78.10;;;24.01;59.59;95211.94;4717202;29;20237;-85
2021/06/06 09:49:28;;;;;;;8.35;7.55;;;23.30;78.60;;;24.30;59.20;95208.66;5121932;27;21178;-83
2021/06/06 09:52:17;;;;;;;9.00;8.20;;;23.60;77.20;;;24.49;59.09;95205.41;5064383;28;20209;-84
2021/06/06 09:54:54;;;;;;;9.10;8.30;;;23.80;77.70;;;24.62;58.93;95202.94;5065447;28;20233;-83
2021/06/06 09:57:43;;;;;;;9.52;8.63;;;24.00;77.50;;;24.78;58.50;95202.91;5069513;28;20772;-83
2021/06/06 10:00:18;;;;;;;9.38;8.57;;;24.10;76.80;;;24.90;57.98;95202.56;4961706;28;20788;-83
2021/06/06 10:03:00;;;;;;;9.43;8.63;;;24.30;76.30;;;24.92;57.00;95197.75;4855173;29;20204;-83
2021/06/06 10:05:33;;;;;;;9.32;8.52;;;24.40;75.90;;;24.90;56.92;95192.66;4721493;29;20683;-83
2021/06/06 10:09:25;;;;;;;8.30;7.50;;;24.50;75.60;;;24.99;57.29;95187.50;5137257;27;20660;-84
2021/06/06 10:12:06;;;;;;;8.48;7.78;;;24.60;75.50;;;25.08;57.13;95195.78;5081763;28;20211;-83
2021/06/06 10:14:58;;;;;;;8.00;7.30;;;24.60;75.90;;;25.17;56.75;95201.34;5039157;28;20757;-83
2021/06/06 10:17:47;;;;;;;7.90;7.10;;;24.70;75.40;;;25.24;56.25;95199.16;5045552;28;20211;-83
2021/06/06 10:20:32;;;;;;;7.50;6.90;;;24.80;74.90;;;25.32;55.72;95193.22;4976656;28;20206;-82
2021/06/06 10:23:06;;;;;;;7.90;7.20;;;24.90;74.40;;;25.37;55.56;95190.53;4940407;28;20685;-84
2021/06/06 10:25:44;;;;;;;7.68;6.97;;;24.90;74.60;;;25.52;55.76;95195.00;4790373;29;20228;-83
2021/06/06 10:29:31;;;;;;;7.40;6.80;;;25.00;74.60;;;25.68;55.75;95194.88;5135454;27;20659;-83
2021/06/06 10:32:21;;;;;;;7.78;7.18;;;25.10;74.30;;;25.83;55.56;95199.31;5078359;28;20225;-83
2021/06/06 10:35:09;;;;;;;8.13;7.30;;;25.30;74.30;;;25.96;55.37;95197.88;5040555;28;20597;-83
2021/06/06 10:37:36;;;;;;;7.97;7.20;;;25.30;74.90;;;26.11;55.60;95205.00;5031614;28;20208;-84
2021/06/06 10:40:23;;;;;;;8.85;8.05;;;25.50;74.60;;;26.20;55.11;95196.03;4962439;28;20220;-84
2021/06/06 10:43:02;;;;;;;7.90;7.20;;;25.70;73.90;;;26.27;54.65;95203.78;4855260;29;20660;-82
2021/06/06 10:45:36;;;;;;;7.50;6.90;;;25.70;73.10;;;26.38;54.55;95191.03;4749652;29;20217;-85
2021/06/06 10:49:29;;;;;;;8.10;7.30;;;25.90;73.30;;;26.50;54.42;95198.69;5134902;27;20586;-84
2021/06/06 10:52:05;;;;;;;7.13;6.53;;;26.00;72.70;;;26.59;53.67;95198.88;5063232;28;20208;-83
2021/06/06 10:54:43;;;;;;;7.45;6.75;;;26.10;73.00;;;26.67;53.87;95199.03;5058273;28;20235;-82
2021/06/06 10:57:26;;;;;;;7.18;6.47;;;26.20;72.30;;;26.75;53.07;95196.84;5046401;28;20214;-83
2021/06/06 11:00:02;;;;;;;7.60;7.00;;;26.30;71.70;;;26.82;53.02;95197.28;4977701;28;20235;-83
2021/06/06 11:02:36;;;;;;;6.88;6.28;;;26.40;71.70;;;26.88;52.78;95192.63;4887784;29;20210;-83
2021/06/06 11:05:10;;;;;;;7.10;6.50;;;26.40;71.20;;;26.94;52.31;95194.16;4853175;29;20247;-84
2021/06/06 11:09:37;;;;;;;6.65;6.05;;;26.50;70.70;;;27.05;52.24;95184.88;5133277;27;20663;-82
2021/06/06 11:12:29;;;;;;;6.57;5.93;;;26.60;70.60;;;27.19;51.82;95189.53;5048166;28;20202;-82
2021/06/06 11:14:56;;;;;;;7.18;6.47;;;26.70;70.10;;;27.30;51.58;95193.69;5018532;28;20228;-82
2021/06/06 11:17:38;;;;;;;6.85;6.07;;;26.80;70.20;;;27.42;51.56;95198.66;5018899;28;20232;-83
2021/06/06 11:20:16;;;;;;;6.85;6.25;;;26.90;70.10;;;27.54;50.62;95196.31;4943217;28;20635;-83
2021/06/06 11:22:47;;;;;;;6.47;5.90;;;27.00;69.00;;;27.67;50.64;95193.97;4798409;29;20224;-83
2021/06/06 11:25:37;;;;;;;6.28;5.78;;;27.10;68.90;;;27.79;50.75;95192.44;4731264;30;20222;-83
2021/06/06 11:30:41;;;;;;;6.50;5.90;;;27.20;70.20;;;28.01;49.57;95196.34;5145164;27;20307;-84
2021/06/06 11:33:35;;;;;;;6.47;5.95;;;27.40;68.80;;;28.04;49.54;95184.19;5087182;28;20263;-84
2021/06/06 11:36:03;;;;;;;6.10;5.60;;;27.50;68.80;;;28.08;50.17;95180.63;5059687;28;20218;-84
2021/06/06 11:38:46;;;;;;;6.80;6.20;;;27.60;68.90;;;28.13;49.79;95177.03;5029792;28;20246;-83
2021/06/06 11:41:22;;;;;;;7.00;6.40;;;27.70;68.50;;;28.17;49.33;95179.94;4959266;28;20212;-83